This is the latest recevied weather packets stored in our database for station/object HB9MIR-13. If no packets are shown the sender has not sent any weather packets the latest 1 day(s).
| Time | Temp. | Humidity | Pressure | Rain* | Wind** | Luminosity | Snow |
|---|---|---|---|---|---|---|---|
| 1777993027 | 16.67° C | 71% | 1006.4 hPa | 0.25 mm | 1.34 m/s, 222° | 26 W/m² | - |
| 1777992340 | 17.22° C | 63% | 1006 hPa | 0 mm | 2.24 m/s, 198° | 73 W/m² | - |
| 1777991652 | 17.78° C | 63% | 1005.8 hPa | 0 mm | 1.79 m/s, 178° | 90 W/m² | - |
| 1777990963 | 18.33° C | 60% | 1005.7 hPa | 0 mm | 0.89 m/s, 252° | 192 W/m² | - |
| 1777990276 | 18.89° C | 60% | 1005.5 hPa | 0 mm | 1.79 m/s, 282° | 266 W/m² | - |
| 1777989601 | 19.44° C | 59% | 1005.6 hPa | 0 mm | 1.79 m/s, 216° | 371 W/m² | - |
| 1777988900 | 20° C | 57% | 1006.1 hPa | 0 mm | 2.24 m/s, 212° | 669 W/m² | - |
| 1777988212 | 19.44° C | 60% | 1005.6 hPa | 0 mm | 0.89 m/s, 262° | 354 W/m² | - |
| 1777987525 | 20° C | 66% | 1006.8 hPa | 0 mm | 0.89 m/s, 210° | 969 W/m² | - |
| 1777986836 | 17.78° C | 64% | 1007.1 hPa | 0 mm | 1.34 m/s, 204° | 991 W/m² | - |
| 1777986100 | 17.78° C | 63% | 1007 hPa | 0 mm | 0.45 m/s, 348° | 563 W/m² | - |
| 1777985398 | 18.33° C | 65% | 1006.6 hPa | 0 mm | 0.89 m/s, 60° | 277 W/m² | - |
| 1777984709 | 17.22° C | 69% | 1006.8 hPa | 0 mm | 0 m/s | 491 W/m² | - |
| 1777984021 | 17.78° C | 69% | 1007.2 hPa | 0 mm | 0.89 m/s, 210° | 619 W/m² | - |
| 1777983334 | 17.22° C | 75% | 1007.2 hPa | 0 mm | 0 m/s | 464 W/m² | - |
| 1777982598 | 17.22° C | 72% | 1007.1 hPa | 0 mm | 0 m/s | 426 W/m² | - |
| 1777981897 | 16.67° C | 74% | 1007.1 hPa | 0 mm | 0.89 m/s, 171° | 458 W/m² | - |
| 1777981208 | 15.56° C | 74% | 1007.3 hPa | 0 mm | 0 m/s | 437 W/m² | - |
| 1777980520 | 16.11° C | 80% | 1007.2 hPa | 0 mm | 0 m/s | 349 W/m² | - |
| 1777979832 | 15.56° C | 80% | 1007.6 hPa | 0 mm | 0 m/s | 381 W/m² | - |
| 1777979145 | 15° C | 83% | 1007.6 hPa | 0 mm | 0 m/s | 233 W/m² | - |
| 1777978458 | 15° C | 83% | 1007.7 hPa | 0 mm | 0 m/s | 209 W/m² | - |
| 1777977783 | 15° C | 82% | 1007.8 hPa | 0 mm | 0 m/s | 225 W/m² | - |
| 1777977084 | 14.44° C | 81% | 1007.6 hPa | 0 mm | 0.89 m/s, 246° | 194 W/m² | - |
| 1777976398 | 15° C | 78% | 1007.6 hPa | 0 mm | 0.45 m/s, 72° | 198 W/m² | - |
* Rain latest hour (hover to see other rain measurements)
** Current wind speed in m/s (hover to see current wind gust speed)